SAS1710 EKCH-EFHK
Flight info
| Callsign | SAS1710 |
|---|---|
| Flight time | 1h 18m |
| Altitude | 35000 |
| Route | KEMAX Q44 IDPAL DCT MOVIS DCT ALAMI DCT OKEVU DCT EVADI Y370 DIVAM |
| Aircraft | MD82/M-SDFGIRWY/S |
Departure
| Time | 2026-05-07 15:53 |
|---|---|
| Airport | Copenhagen Kastrup Airport (EKCH) |
Arrival
| Time | 2026-05-07 17:11 |
|---|---|
| Airport | Helsinki Vantaa Airport (EFHK) |
| Time | Latitude | Longitude | Altitude | Speed | Heading |
|---|---|---|---|---|---|
| 2026-05-07 15:12 | 55.62646 | 12.64572 | 24 ft | 0 kts | 282° |
| 2026-05-07 15:41 | 55.62642 | 12.64597 | 25 ft | 2 kts | 282° |
| 2026-05-07 15:41 | 55.62640 | 12.64626 | 27 ft | 2 kts | 266° |
| 2026-05-07 15:42 | 55.62645 | 12.64653 | 27 ft | 2 kts | 234° |
| 2026-05-07 15:42 | 55.62657 | 12.64671 | 29 ft | 2 kts | 193° |
| 2026-05-07 15:45 | 55.62655 | 12.64670 | 29 ft | 2 kts | 192° |
| 2026-05-07 15:45 | 55.62630 | 12.64661 | 28 ft | 6 kts | 192° |
| 2026-05-07 15:46 | 55.62502 | 12.64658 | 27 ft | 13 kts | 175° |
| 2026-05-07 15:46 | 55.62400 | 12.64679 | 24 ft | 16 kts | 179° |
| 2026-05-07 15:46 | 55.62305 | 12.64766 | 24 ft | 16 kts | 131° |
| 2026-05-07 15:47 | 55.62231 | 12.64801 | 25 ft | 11 kts | 197° |
| 2026-05-07 15:47 | 55.62154 | 12.64698 | 25 ft | 17 kts | 219° |
| 2026-05-07 15:47 | 55.62039 | 12.64571 | 26 ft | 22 kts | 213° |
| 2026-05-07 15:47 | 55.61881 | 12.64513 | 26 ft | 26 kts | 169° |
| 2026-05-07 15:48 | 55.61726 | 12.64566 | 25 ft | 18 kts | 169° |
| 2026-05-07 15:48 | 55.61644 | 12.64525 | 26 ft | 13 kts | 213° |
| 2026-05-07 15:48 | 55.61567 | 12.64437 | 24 ft | 14 kts | 213° |
| 2026-05-07 15:48 | 55.61483 | 12.64342 | 26 ft | 15 kts | 212° |
| 2026-05-07 15:49 | 55.61392 | 12.64238 | 27 ft | 16 kts | 213° |
| 2026-05-07 15:49 | 55.61295 | 12.64127 | 25 ft | 17 kts | 213° |
| 2026-05-07 15:49 | 55.61193 | 12.64008 | 25 ft | 18 kts | 213° |
| 2026-05-07 15:49 | 55.61084 | 12.63885 | 26 ft | 19 kts | 212° |
| 2026-05-07 15:50 | 55.60970 | 12.63754 | 24 ft | 20 kts | 213° |
| 2026-05-07 15:50 | 55.60852 | 12.63618 | 24 ft | 21 kts | 213° |
| 2026-05-07 15:50 | 55.60729 | 12.63478 | 24 ft | 21 kts | 213° |
| 2026-05-07 15:50 | 55.60613 | 12.63328 | 24 ft | 18 kts | 223° |
| 2026-05-07 15:51 | 55.60535 | 12.63226 | 26 ft | 12 kts | 193° |
| 2026-05-07 15:51 | 55.60466 | 12.63284 | 24 ft | 12 kts | 132° |
| 2026-05-07 15:51 | 55.60412 | 12.63391 | 25 ft | 8 kts | 125° |
| 2026-05-07 15:51 | 55.60418 | 12.63466 | 26 ft | 1 kts | 44° |
| 2026-05-07 15:52 | 55.60468 | 12.63548 | 25 ft | 28 kts | 42° |
| 2026-05-07 15:52 | 55.60772 | 12.64015 | 27 ft | 90 kts | 41° |
| 2026-05-07 15:53 | 55.61410 | 12.65000 | 27 ft | 151 kts | 40° |
| 2026-05-07 15:53 | 55.62266 | 12.66303 | 583 ft | 163 kts | 38° |
| 2026-05-07 15:53 | 55.63120 | 12.67602 | 1569 ft | 161 kts | 38° |
| 2026-05-07 15:53 | 55.63988 | 12.68944 | 2258 ft | 172 kts | 38° |
| 2026-05-07 15:54 | 55.64915 | 12.70376 | 2903 ft | 185 kts | 39° |
| 2026-05-07 15:54 | 55.65930 | 12.71955 | 3484 ft | 202 kts | 39° |
| 2026-05-07 15:54 | 55.67051 | 12.73670 | 3955 ft | 225 kts | 39° |
| 2026-05-07 15:54 | 55.68277 | 12.75518 | 4518 ft | 243 kts | 38° |
| 2026-05-07 15:55 | 55.69631 | 12.77544 | 5107 ft | 261 kts | 39° |
| 2026-05-07 15:55 | 55.71010 | 12.79609 | 6002 ft | 261 kts | 39° |
| 2026-05-07 15:55 | 55.72405 | 12.81705 | 6865 ft | 266 kts | 40° |
| 2026-05-07 15:55 | 55.73821 | 12.83834 | 7642 ft | 270 kts | 40° |
| 2026-05-07 15:56 | 55.75268 | 12.86030 | 8369 ft | 275 kts | 40° |
| 2026-05-07 15:56 | 55.76712 | 12.88254 | 9212 ft | 276 kts | 41° |
| 2026-05-07 15:56 | 55.78160 | 12.90501 | 10040 ft | 277 kts | 41° |
| 2026-05-07 15:56 | 55.79616 | 12.92784 | 10595 ft | 286 kts | 41° |
| 2026-05-07 15:57 | 55.81153 | 12.95207 | 10919 ft | 303 kts | 41° |
| 2026-05-07 15:57 | 55.82773 | 12.97769 | 11196 ft | 321 kts | 41° |
| 2026-05-07 15:57 | 55.84490 | 13.00483 | 11479 ft | 338 kts | 41° |
| 2026-05-07 15:57 | 55.86276 | 13.03315 | 11892 ft | 350 kts | 41° |
| 2026-05-07 15:58 | 55.88110 | 13.06225 | 12534 ft | 355 kts | 41° |
| 2026-05-07 15:58 | 55.89962 | 13.09164 | 13228 ft | 358 kts | 41° |
| 2026-05-07 15:58 | 55.91832 | 13.12132 | 13893 ft | 362 kts | 41° |
| 2026-05-07 15:58 | 55.93721 | 13.15130 | 14460 ft | 367 kts | 41° |
| 2026-05-07 15:59 | 55.95640 | 13.18182 | 15010 ft | 371 kts | 40° |
| 2026-05-07 15:59 | 55.97574 | 13.21261 | 15589 ft | 375 kts | 40° |
| 2026-05-07 15:59 | 55.99530 | 13.24378 | 16180 ft | 378 kts | 40° |
| 2026-05-07 15:59 | 56.01506 | 13.27526 | 16764 ft | 382 kts | 40° |
| 2026-05-07 16:00 | 56.03497 | 13.30694 | 17336 ft | 386 kts | 40° |
| 2026-05-07 16:00 | 56.05513 | 13.33905 | 17907 ft | 389 kts | 40° |
| 2026-05-07 16:00 | 56.07544 | 13.37155 | 18456 ft | 394 kts | 40° |
| 2026-05-07 16:00 | 56.09588 | 13.40437 | 18954 ft | 397 kts | 40° |
| 2026-05-07 16:01 | 56.11652 | 13.43754 | 19492 ft | 400 kts | 40° |
| 2026-05-07 16:01 | 56.13585 | 13.47371 | 20004 ft | 404 kts | 51° |
| 2026-05-07 16:01 | 56.15239 | 13.51455 | 20517 ft | 407 kts | 54° |
| 2026-05-07 16:01 | 56.16831 | 13.55689 | 21039 ft | 410 kts | 55° |
| 2026-05-07 16:02 | 56.18428 | 13.59949 | 21558 ft | 413 kts | 55° |
| 2026-05-07 16:02 | 56.20047 | 13.64238 | 22075 ft | 416 kts | 54° |
| 2026-05-07 16:02 | 56.21694 | 13.68545 | 22583 ft | 419 kts | 54° |
| 2026-05-07 16:02 | 56.23363 | 13.72851 | 23060 ft | 423 kts | 54° |
| 2026-05-07 16:03 | 56.25063 | 13.77196 | 23535 ft | 426 kts | 53° |
| 2026-05-07 16:03 | 56.26781 | 13.81564 | 23925 ft | 430 kts | 53° |
| 2026-05-07 16:03 | 56.28515 | 13.85962 | 24393 ft | 431 kts | 53° |
| 2026-05-07 16:03 | 56.30232 | 13.90323 | 24859 ft | 433 kts | 53° |
| 2026-05-07 16:04 | 56.31873 | 13.94501 | 25289 ft | 434 kts | 53° |
| 2026-05-07 16:04 | 56.33619 | 13.98960 | 25721 ft | 436 kts | 53° |
| 2026-05-07 16:04 | 56.35375 | 14.03455 | 26130 ft | 439 kts | 53° |
| 2026-05-07 16:04 | 56.37133 | 14.07964 | 26544 ft | 442 kts | 54° |
| 2026-05-07 16:05 | 56.38895 | 14.12526 | 26929 ft | 445 kts | 54° |
| 2026-05-07 16:05 | 56.40639 | 14.17077 | 27325 ft | 448 kts | 54° |
| 2026-05-07 16:05 | 56.42414 | 14.21709 | 27775 ft | 449 kts | 54° |
| 2026-05-07 16:05 | 56.44198 | 14.26350 | 28210 ft | 451 kts | 54° |
| 2026-05-07 16:06 | 56.45997 | 14.31014 | 28625 ft | 453 kts | 54° |
| 2026-05-07 16:06 | 56.47824 | 14.35769 | 29027 ft | 456 kts | 54° |
| 2026-05-07 16:06 | 56.49610 | 14.40423 | 29533 ft | 455 kts | 54° |
| 2026-05-07 16:06 | 56.51438 | 14.45183 | 30168 ft | 452 kts | 54° |
| 2026-05-07 16:07 | 56.53199 | 14.49762 | 30706 ft | 448 kts | 54° |
| 2026-05-07 16:07 | 56.54977 | 14.54384 | 31220 ft | 445 kts | 54° |
| 2026-05-07 16:07 | 56.56764 | 14.59026 | 31672 ft | 443 kts | 54° |
| 2026-05-07 16:07 | 56.58506 | 14.63555 | 32048 ft | 443 kts | 54° |
| 2026-05-07 16:08 | 56.60270 | 14.68143 | 32423 ft | 443 kts | 53° |
| 2026-05-07 16:08 | 56.62026 | 14.72715 | 32793 ft | 442 kts | 54° |
| 2026-05-07 16:08 | 56.63785 | 14.77304 | 33160 ft | 442 kts | 53° |
| 2026-05-07 16:08 | 56.65562 | 14.81948 | 33554 ft | 440 kts | 54° |
| 2026-05-07 16:09 | 56.67279 | 14.86439 | 33959 ft | 438 kts | 53° |
| 2026-05-07 16:09 | 56.69020 | 14.90993 | 34297 ft | 437 kts | 54° |
| 2026-05-07 16:09 | 56.70749 | 14.95526 | 34525 ft | 438 kts | 54° |
| 2026-05-07 16:09 | 56.72480 | 15.00116 | 34689 ft | 440 kts | 54° |
| 2026-05-07 16:10 | 56.74205 | 15.04729 | 34859 ft | 443 kts | 54° |
| 2026-05-07 16:10 | 56.75947 | 15.09396 | 34964 ft | 447 kts | 54° |
| 2026-05-07 16:10 | 56.77704 | 15.14101 | 35009 ft | 449 kts | 54° |
| 2026-05-07 16:11 | 56.81211 | 15.23481 | 35041 ft | 445 kts | 54° |
| 2026-05-07 16:11 | 56.84686 | 15.32763 | 35058 ft | 441 kts | 54° |
| 2026-05-07 16:12 | 56.88130 | 15.41983 | 35067 ft | 439 kts | 54° |
| 2026-05-07 16:12 | 56.91584 | 15.51245 | 35070 ft | 443 kts | 54° |
| 2026-05-07 16:13 | 56.95061 | 15.60617 | 35074 ft | 446 kts | 55° |
| 2026-05-07 16:13 | 56.97997 | 15.68671 | 35077 ft | 447 kts | 55° |
| 2026-05-07 16:14 | 57.01440 | 15.78142 | 35082 ft | 446 kts | 55° |
| 2026-05-07 16:14 | 57.04882 | 15.87584 | 35087 ft | 445 kts | 55° |
| 2026-05-07 16:15 | 57.08328 | 15.97028 | 35088 ft | 446 kts | 55° |
| 2026-05-07 16:15 | 57.11791 | 16.06537 | 35090 ft | 448 kts | 55° |
| 2026-05-07 16:16 | 57.15258 | 16.16085 | 35088 ft | 449 kts | 55° |
| 2026-05-07 16:16 | 57.18733 | 16.25673 | 35093 ft | 450 kts | 55° |
| 2026-05-07 16:17 | 57.22224 | 16.35245 | 35096 ft | 449 kts | 53° |
| 2026-05-07 16:17 | 57.25361 | 16.42880 | 35100 ft | 449 kts | 50° |
| 2026-05-07 16:18 | 57.29308 | 16.51820 | 35104 ft | 450 kts | 49° |
| 2026-05-07 16:18 | 57.33280 | 16.60781 | 35106 ft | 451 kts | 49° |
| 2026-05-07 16:19 | 57.37236 | 16.69850 | 35108 ft | 453 kts | 50° |
| 2026-05-07 16:19 | 57.41176 | 16.78971 | 35103 ft | 454 kts | 50° |
| 2026-05-07 16:20 | 57.45120 | 16.88127 | 35119 ft | 454 kts | 50° |
| 2026-05-07 16:20 | 57.49061 | 16.97283 | 35110 ft | 453 kts | 50° |
| 2026-05-07 16:21 | 57.52972 | 17.06500 | 35110 ft | 453 kts | 51° |
| 2026-05-07 16:21 | 57.56875 | 17.15737 | 35108 ft | 455 kts | 50° |
| 2026-05-07 16:22 | 57.60799 | 17.25007 | 35108 ft | 456 kts | 51° |
| 2026-05-07 16:22 | 57.64736 | 17.34312 | 35108 ft | 458 kts | 50° |
| 2026-05-07 16:23 | 57.68664 | 17.43611 | 35107 ft | 459 kts | 51° |
| 2026-05-07 16:23 | 57.72614 | 17.52991 | 35104 ft | 459 kts | 51° |
| 2026-05-07 16:24 | 57.76546 | 17.62404 | 35105 ft | 459 kts | 51° |
| 2026-05-07 16:24 | 57.80446 | 17.71870 | 35108 ft | 459 kts | 51° |
| 2026-05-07 16:25 | 57.84362 | 17.81368 | 35109 ft | 460 kts | 51° |
| 2026-05-07 16:25 | 57.88291 | 17.90874 | 35110 ft | 462 kts | 51° |
| 2026-05-07 16:26 | 57.92229 | 18.00423 | 35103 ft | 463 kts | 51° |
| 2026-05-07 16:26 | 57.96175 | 18.10015 | 35110 ft | 464 kts | 51° |
| 2026-05-07 16:27 | 58.00127 | 18.19654 | 35113 ft | 464 kts | 52° |
| 2026-05-07 16:27 | 58.04032 | 18.29332 | 35112 ft | 463 kts | 52° |
| 2026-05-07 16:28 | 58.07919 | 18.39020 | 35115 ft | 463 kts | 52° |
| 2026-05-07 16:28 | 58.11829 | 18.48728 | 35119 ft | 465 kts | 52° |
| 2026-05-07 16:29 | 58.15753 | 18.58482 | 35120 ft | 467 kts | 52° |
| 2026-05-07 16:29 | 58.19697 | 18.68302 | 35121 ft | 468 kts | 52° |
| 2026-05-07 16:30 | 58.23634 | 18.78139 | 35120 ft | 468 kts | 52° |
| 2026-05-07 16:30 | 58.27554 | 18.88027 | 35121 ft | 468 kts | 53° |
| 2026-05-07 16:31 | 58.31433 | 18.97947 | 35120 ft | 468 kts | 53° |
| 2026-05-07 16:31 | 58.35325 | 19.07882 | 35117 ft | 469 kts | 53° |
| 2026-05-07 16:32 | 58.39234 | 19.17843 | 35117 ft | 470 kts | 53° |
| 2026-05-07 16:32 | 58.43131 | 19.27789 | 35119 ft | 471 kts | 53° |
| 2026-05-07 16:33 | 58.47075 | 19.37892 | 35121 ft | 472 kts | 53° |
| 2026-05-07 16:33 | 58.50994 | 19.47976 | 35120 ft | 473 kts | 53° |
| 2026-05-07 16:34 | 58.54846 | 19.58071 | 35122 ft | 473 kts | 54° |
| 2026-05-07 16:34 | 58.58716 | 19.68234 | 35123 ft | 472 kts | 54° |
| 2026-05-07 16:35 | 58.62621 | 19.78459 | 35122 ft | 472 kts | 53° |
| 2026-05-07 16:35 | 58.66515 | 19.88655 | 35121 ft | 474 kts | 54° |
| 2026-05-07 16:36 | 58.70322 | 19.98658 | 35123 ft | 476 kts | 54° |
| 2026-05-07 16:36 | 58.74230 | 20.08953 | 35118 ft | 477 kts | 54° |
| 2026-05-07 16:37 | 58.78109 | 20.19337 | 35119 ft | 478 kts | 54° |
| 2026-05-07 16:37 | 58.81969 | 20.29758 | 35117 ft | 477 kts | 54° |
| 2026-05-07 16:38 | 58.85833 | 20.40164 | 35117 ft | 477 kts | 54° |
| 2026-05-07 16:38 | 58.89706 | 20.50577 | 35120 ft | 478 kts | 54° |
| 2026-05-07 16:39 | 58.93584 | 20.61037 | 35120 ft | 479 kts | 54° |
| 2026-05-07 16:39 | 58.97468 | 20.71540 | 35119 ft | 480 kts | 54° |
| 2026-05-07 16:40 | 59.01381 | 20.82062 | 35118 ft | 481 kts | 54° |
| 2026-05-07 16:40 | 59.05325 | 20.92602 | 35116 ft | 482 kts | 57° |
| 2026-05-07 16:41 | 59.08724 | 21.03837 | 35115 ft | 483 kts | 62° |
| 2026-05-07 16:41 | 59.12060 | 21.15162 | 35114 ft | 483 kts | 60° |
| 2026-05-07 16:42 | 59.15532 | 21.26345 | 35110 ft | 483 kts | 59° |
| 2026-05-07 16:42 | 59.19055 | 21.37479 | 35114 ft | 483 kts | 59° |
| 2026-05-07 16:43 | 59.22571 | 21.48664 | 35108 ft | 484 kts | 59° |
| 2026-05-07 16:43 | 59.26061 | 21.59954 | 35111 ft | 485 kts | 60° |
| 2026-05-07 16:44 | 59.29517 | 21.71300 | 35109 ft | 486 kts | 60° |
| 2026-05-07 16:44 | 59.32990 | 21.82666 | 35107 ft | 487 kts | 60° |
| 2026-05-07 16:45 | 59.36459 | 21.94084 | 35106 ft | 488 kts | 60° |
| 2026-05-07 16:45 | 59.39927 | 22.05560 | 35101 ft | 489 kts | 60° |
| 2026-05-07 16:46 | 59.43393 | 22.17063 | 35104 ft | 490 kts | 60° |
| 2026-05-07 16:46 | 59.46867 | 22.28623 | 34782 ft | 495 kts | 60° |
| 2026-05-07 16:46 | 59.48624 | 22.34469 | 34371 ft | 495 kts | 61° |
| 2026-05-07 16:47 | 59.50361 | 22.40252 | 33941 ft | 489 kts | 61° |
| 2026-05-07 16:47 | 59.52077 | 22.46001 | 33446 ft | 483 kts | 61° |
| 2026-05-07 16:47 | 59.53751 | 22.51707 | 32949 ft | 478 kts | 61° |
| 2026-05-07 16:47 | 59.55394 | 22.57347 | 32467 ft | 473 kts | 61° |
| 2026-05-07 16:48 | 59.57025 | 22.62953 | 31994 ft | 468 kts | 61° |
| 2026-05-07 16:48 | 59.58638 | 22.68482 | 31528 ft | 464 kts | 60° |
| 2026-05-07 16:48 | 59.60244 | 22.73978 | 31063 ft | 460 kts | 60° |
| 2026-05-07 16:48 | 59.61838 | 22.79426 | 30621 ft | 456 kts | 60° |
| 2026-05-07 16:49 | 59.63416 | 22.84817 | 30175 ft | 452 kts | 60° |
| 2026-05-07 16:49 | 59.64988 | 22.90192 | 29643 ft | 450 kts | 60° |
| 2026-05-07 16:49 | 59.66546 | 22.95520 | 29147 ft | 447 kts | 59° |
| 2026-05-07 16:49 | 59.68099 | 23.00836 | 28645 ft | 444 kts | 60° |
| 2026-05-07 16:50 | 59.69632 | 23.06135 | 28154 ft | 442 kts | 60° |
| 2026-05-07 16:50 | 59.71141 | 23.11397 | 27670 ft | 439 kts | 60° |
| 2026-05-07 16:50 | 59.72642 | 23.16656 | 27193 ft | 437 kts | 60° |
| 2026-05-07 16:50 | 59.74133 | 23.21885 | 26740 ft | 434 kts | 60° |
| 2026-05-07 16:51 | 59.75610 | 23.27064 | 26252 ft | 431 kts | 59° |
| 2026-05-07 16:51 | 59.77084 | 23.32224 | 25810 ft | 428 kts | 59° |
| 2026-05-07 16:51 | 59.78549 | 23.37352 | 25350 ft | 425 kts | 59° |
| 2026-05-07 16:51 | 59.80002 | 23.42436 | 24884 ft | 423 kts | 59° |
| 2026-05-07 16:52 | 59.81450 | 23.47507 | 24428 ft | 420 kts | 59° |
| 2026-05-07 16:52 | 59.82882 | 23.52529 | 23991 ft | 417 kts | 59° |
| 2026-05-07 16:52 | 59.84290 | 23.57469 | 23524 ft | 414 kts | 59° |
| 2026-05-07 16:52 | 59.85727 | 23.62507 | 22988 ft | 411 kts | 59° |
| 2026-05-07 16:53 | 59.87134 | 23.67421 | 22470 ft | 408 kts | 58° |
| 2026-05-07 16:53 | 59.88516 | 23.72239 | 21966 ft | 404 kts | 58° |
| 2026-05-07 16:53 | 59.89901 | 23.77074 | 21438 ft | 402 kts | 58° |
| 2026-05-07 16:53 | 59.91281 | 23.81898 | 20904 ft | 399 kts | 58° |
| 2026-05-07 16:54 | 59.92651 | 23.86693 | 20411 ft | 396 kts | 58° |
| 2026-05-07 16:54 | 59.94004 | 23.91437 | 19909 ft | 393 kts | 58° |
| 2026-05-07 16:54 | 59.95351 | 23.96164 | 19419 ft | 390 kts | 58° |
| 2026-05-07 16:54 | 59.96681 | 24.00841 | 18936 ft | 387 kts | 58° |
| 2026-05-07 16:55 | 59.98004 | 24.05498 | 18458 ft | 383 kts | 58° |
| 2026-05-07 16:55 | 59.99315 | 24.10113 | 17922 ft | 380 kts | 58° |
| 2026-05-07 16:55 | 60.00609 | 24.14677 | 17380 ft | 377 kts | 58° |
| 2026-05-07 16:55 | 60.01897 | 24.19217 | 16847 ft | 373 kts | 58° |
| 2026-05-07 16:56 | 60.03165 | 24.23698 | 16317 ft | 369 kts | 58° |
| 2026-05-07 16:56 | 60.04425 | 24.28153 | 15795 ft | 365 kts | 58° |
| 2026-05-07 16:56 | 60.06885 | 24.36941 | 14790 ft | 358 kts | 58° |
| 2026-05-07 16:57 | 60.08078 | 24.41276 | 14302 ft | 354 kts | 58° |
| 2026-05-07 16:57 | 60.09263 | 24.45590 | 13800 ft | 351 kts | 58° |
| 2026-05-07 16:57 | 60.10433 | 24.49841 | 13281 ft | 346 kts | 58° |
| 2026-05-07 16:57 | 60.11591 | 24.54036 | 12790 ft | 341 kts | 58° |
| 2026-05-07 16:58 | 60.12730 | 24.58153 | 12291 ft | 336 kts | 58° |
| 2026-05-07 16:58 | 60.13856 | 24.62223 | 11843 ft | 331 kts | 58° |
| 2026-05-07 16:58 | 60.14965 | 24.66230 | 11382 ft | 327 kts | 59° |
| 2026-05-07 16:58 | 60.16061 | 24.70194 | 10920 ft | 322 kts | 59° |
| 2026-05-07 16:59 | 60.17139 | 24.74095 | 10465 ft | 318 kts | 59° |
| 2026-05-07 16:59 | 60.18209 | 24.77973 | 9974 ft | 316 kts | 59° |
| 2026-05-07 16:59 | 60.19253 | 24.81760 | 9430 ft | 310 kts | 59° |
| 2026-05-07 16:59 | 60.20295 | 24.85553 | 8870 ft | 303 kts | 59° |
| 2026-05-07 17:00 | 60.21287 | 24.89177 | 8350 ft | 295 kts | 59° |
| 2026-05-07 17:00 | 60.22246 | 24.92679 | 7904 ft | 276 kts | 59° |
| 2026-05-07 17:00 | 60.23142 | 24.95965 | 7484 ft | 260 kts | 59° |
| 2026-05-07 17:00 | 60.23989 | 24.99068 | 7065 ft | 248 kts | 59° |
| 2026-05-07 17:01 | 60.24805 | 25.02044 | 6690 ft | 240 kts | 59° |
| 2026-05-07 17:01 | 60.25614 | 25.04975 | 6334 ft | 239 kts | 59° |
| 2026-05-07 17:01 | 60.26537 | 25.07742 | 5964 ft | 239 kts | 41° |
| 2026-05-07 17:01 | 60.27980 | 25.09307 | 5668 ft | 237 kts | 14° |
| 2026-05-07 17:02 | 60.29583 | 25.10122 | 5470 ft | 239 kts | 12° |
| 2026-05-07 17:02 | 60.31203 | 25.10901 | 5235 ft | 238 kts | 12° |
| 2026-05-07 17:02 | 60.32808 | 25.11693 | 4973 ft | 237 kts | 12° |
| 2026-05-07 17:02 | 60.34416 | 25.12473 | 4691 ft | 237 kts | 11° |
| 2026-05-07 17:03 | 60.36042 | 25.12545 | 4428 ft | 237 kts | 342° |
| 2026-05-07 17:03 | 60.37536 | 25.11200 | 4178 ft | 235 kts | 330° |
| 2026-05-07 17:03 | 60.38971 | 25.09631 | 3906 ft | 233 kts | 330° |
| 2026-05-07 17:03 | 60.40371 | 25.08080 | 3637 ft | 224 kts | 330° |
| 2026-05-07 17:04 | 60.41255 | 25.07093 | 3475 ft | 216 kts | 329° |
| 2026-05-07 17:04 | 60.42553 | 25.05641 | 3229 ft | 210 kts | 329° |
| 2026-05-07 17:04 | 60.43820 | 25.04224 | 3021 ft | 208 kts | 330° |
| 2026-05-07 17:04 | 60.45089 | 25.02833 | 2812 ft | 205 kts | 330° |
| 2026-05-07 17:05 | 60.46332 | 25.01498 | 2600 ft | 201 kts | 330° |
| 2026-05-07 17:05 | 60.47563 | 25.00190 | 2421 ft | 198 kts | 331° |
| 2026-05-07 17:05 | 60.48776 | 24.98898 | 2245 ft | 196 kts | 330° |
| 2026-05-07 17:05 | 60.49992 | 24.97576 | 2095 ft | 204 kts | 330° |
| 2026-05-07 17:06 | 60.51148 | 24.95930 | 2028 ft | 207 kts | 307° |
| 2026-05-07 17:06 | 60.51619 | 24.93163 | 2003 ft | 215 kts | 268° |
| 2026-05-07 17:06 | 60.51128 | 24.90310 | 2005 ft | 217 kts | 239° |
| 2026-05-07 17:06 | 60.50006 | 24.88275 | 2004 ft | 221 kts | 212° |
| 2026-05-07 17:07 | 60.48717 | 24.86744 | 1979 ft | 204 kts | 212° |
| 2026-05-07 17:07 | 60.47469 | 24.85795 | 1938 ft | 183 kts | 191° |
| 2026-05-07 17:07 | 60.46253 | 24.85474 | 1975 ft | 176 kts | 189° |
| 2026-05-07 17:07 | 60.45003 | 24.85239 | 1982 ft | 181 kts | 183° |
| 2026-05-07 17:08 | 60.43768 | 24.85636 | 1985 ft | 185 kts | 159° |
| 2026-05-07 17:08 | 60.42573 | 24.86725 | 1997 ft | 187 kts | 157° |
| 2026-05-07 17:08 | 60.41409 | 24.87819 | 2007 ft | 184 kts | 155° |
| 2026-05-07 17:08 | 60.40333 | 24.88921 | 1966 ft | 163 kts | 155° |
| 2026-05-07 17:09 | 60.39341 | 24.89945 | 1692 ft | 157 kts | 155° |
| 2026-05-07 17:09 | 60.38392 | 24.90934 | 1473 ft | 150 kts | 155° |
| 2026-05-07 17:09 | 60.37474 | 24.91889 | 1267 ft | 146 kts | 156° |
| 2026-05-07 17:09 | 60.36570 | 24.92818 | 1095 ft | 145 kts | 156° |
| 2026-05-07 17:10 | 60.35675 | 24.93717 | 887 ft | 143 kts | 154° |
| 2026-05-07 17:10 | 60.34799 | 24.94673 | 642 ft | 143 kts | 155° |
| 2026-05-07 17:10 | 60.33918 | 24.95561 | 405 ft | 139 kts | 157° |
| 2026-05-07 17:10 | 60.33067 | 24.96423 | 215 ft | 134 kts | 156° |
| 2026-05-07 17:11 | 60.32317 | 24.97181 | 159 ft | 97 kts | 151° |
| 2026-05-07 17:11 | 60.31909 | 24.97599 | 154 ft | 50 kts | 153° |
| 2026-05-07 17:11 | 60.31728 | 24.97723 | 153 ft | 20 kts | 196° |
| 2026-05-07 17:11 | 60.31669 | 24.97614 | 155 ft | 2 kts | 244° |
| 2026-05-07 17:12 | 60.31668 | 24.97612 | 155 ft | 0 kts | 244° |
| 2026-05-07 17:13 | 60.31666 | 24.97602 | 156 ft | 3 kts | 246° |
| 2026-05-07 17:13 | 60.31666 | 24.97543 | 158 ft | 6 kts | 289° |
| 2026-05-07 17:13 | 60.31710 | 24.97462 | 160 ft | 13 kts | 331° |
| 2026-05-07 17:13 | 60.31804 | 24.97364 | 162 ft | 16 kts | 333° |
| 2026-05-07 17:14 | 60.31904 | 24.97263 | 163 ft | 16 kts | 333° |
| 2026-05-07 17:14 | 60.32003 | 24.97159 | 166 ft | 16 kts | 332° |
| 2026-05-07 17:14 | 60.32104 | 24.97056 | 166 ft | 17 kts | 333° |
| 2026-05-07 17:14 | 60.32212 | 24.96944 | 166 ft | 19 kts | 333° |
| 2026-05-07 17:15 | 60.32302 | 24.96822 | 166 ft | 7 kts | 288° |
| 2026-05-07 17:15 | 60.32283 | 24.96742 | 167 ft | 6 kts | 228° |
| 2026-05-07 17:15 | 60.32254 | 24.96677 | 168 ft | 6 kts | 228° |
| 2026-05-07 17:15 | 60.32227 | 24.96615 | 169 ft | 6 kts | 227° |
| 2026-05-07 17:16 | 60.32185 | 24.96524 | 169 ft | 10 kts | 227° |
| 2026-05-07 17:16 | 60.32135 | 24.96416 | 169 ft | 11 kts | 227° |
| 2026-05-07 17:16 | 60.32081 | 24.96293 | 168 ft | 12 kts | 228° |
| 2026-05-07 17:16 | 60.32021 | 24.96164 | 169 ft | 13 kts | 227° |
| 2026-05-07 17:17 | 60.31975 | 24.96061 | 170 ft | 1 kts | 227° |
| 2026-05-07 17:17 | 60.31965 | 24.96042 | 170 ft | 6 kts | 217° |
| 2026-05-07 17:17 | 60.31901 | 24.96081 | 168 ft | 11 kts | 140° |
| 2026-05-07 17:17 | 60.31841 | 24.96160 | 167 ft | 11 kts | 148° |
| 2026-05-07 17:18 | 60.31803 | 24.96224 | 167 ft | 7 kts | 138° |
| 2026-05-07 17:18 | 60.31783 | 24.96260 | 167 ft | 0 kts | 136° |